< < Back
Terminal Aerodrome Forecast


Current Version              Previous Versions:   1  2  3  4  5  6  7  8  9  

Terminal Aerodrome Forecast

967
FTUS44 KBMX 300500
TAFANB
TAF
KANB 300523Z 3006/3106 31012G20KT P6SM OVC040
     FM300700 34010KT P6SM OVC025
     FM301000 35009KT P6SM OVC040
     FM301400 36012KT P6SM SCT025 BKN250
     FM310000 35004KT P6SM BKN200=

Latest METAR

815
SAUS70 KWBC 301756
MTRANB
METAR KANB 301753Z AUTO VRB04G15KT 10SM CLR 09/M04 A3037 RMK AO2 SLP288
T00891044 10089 20044 58006


USA.gov is the U.S. government's official web portal to all federal, state and local government web resources and services.